sensor_id;sensor_type;location;lat;lon;timestamp;temperature;humidity
3005;DHT22;1512;51.486;6.610;2023-03-30T00:00:14;11.30;99.90
3005;DHT22;1512;51.486;6.610;2023-03-30T00:04:26;11.30;99.90
3005;DHT22;1512;51.486;6.610;2023-03-30T00:08:36;11.30;99.90
3005;DHT22;1512;51.486;6.610;2023-03-30T00:12:46;11.20;99.90
3005;DHT22;1512;51.486;6.610;2023-03-30T00:16:57;11.30;99.90
3005;DHT22;1512;51.486;6.610;2023-03-30T00:21:07;11.30;99.90
3005;DHT22;1512;51.486;6.610;2023-03-30T00:25:19;11.30;99.90
3005;DHT22;1512;51.486;6.610;2023-03-30T00:29:29;11.30;99.60
3005;DHT22;1512;51.486;6.610;2023-03-30T00:33:38;11.40;42.00
3005;DHT22;1512;51.486;6.610;2023-03-30T00:37:48;11.40;7.50
3005;DHT22;1512;51.486;6.610;2023-03-30T00:41:58;11.40;9.30
3005;DHT22;1512;51.486;6.610;2023-03-30T00:46:07;11.40;1.00
3005;DHT22;1512;51.486;6.610;2023-03-30T00:50:19;11.40;1.00
3005;DHT22;1512;51.486;6.610;2023-03-30T00:54:28;11.40;1.00
3005;DHT22;1512;51.486;6.610;2023-03-30T00:58:39;11.30;1.00
3005;DHT22;1512;51.486;6.610;2023-03-30T01:02:55;11.40;1.00
3005;DHT22;1512;51.486;6.610;2023-03-30T01:07:03;11.40;1.00
3005;DHT22;1512;51.486;6.610;2023-03-30T01:11:13;11.30;1.00
3005;DHT22;1512;51.486;6.610;2023-03-30T01:15:22;11.30;1.00
3005;DHT22;1512;51.486;6.610;2023-03-30T01:28:37;11.10;1.00
3005;DHT22;1512;51.486;6.610;2023-03-30T01:46:24;11.20;1.00
3005;DHT22;1512;51.486;6.610;2023-03-30T01:50:40;11.20;1.00
3005;DHT22;1512;51.486;6.610;2023-03-30T01:55:04;11.20;1.00
3005;DHT22;1512;51.486;6.610;2023-03-30T01:59:25;11.30;1.00
3005;DHT22;1512;51.486;6.610;2023-03-30T02:03:38;11.30;1.00
3005;DHT22;1512;51.486;6.610;2023-03-30T02:07:51;11.40;1.00
3005;DHT22;1512;51.486;6.610;2023-03-30T02:12:00;11.50;1.00
3005;DHT22;1512;51.486;6.610;2023-03-30T02:16:12;11.60;1.00
3005;DHT22;1512;51.486;6.610;2023-03-30T02:20:21;11.60;1.00
3005;DHT22;1512;51.486;6.610;2023-03-30T02:24:31;11.70;1.00
3005;DHT22;1512;51.486;6.610;2023-03-30T02:28:40;11.70;1.00
3005;DHT22;1512;51.486;6.610;2023-03-30T02:32:54;11.70;1.00
3005;DHT22;1512;51.486;6.610;2023-03-30T02:50:45;12.00;1.00
3005;DHT22;1512;51.486;6.610;2023-03-30T02:54:57;12.00;1.00
3005;DHT22;1512;51.486;6.610;2023-03-30T02:59:27;12.10;1.00
3005;DHT22;1512;51.486;6.610;2023-03-30T03:03:39;12.20;1.00
3005;DHT22;1512;51.486;6.610;2023-03-30T03:07:48;12.30;1.00
3005;DHT22;1512;51.486;6.610;2023-03-30T03:11:57;12.20;1.00
3005;DHT22;1512;51.486;6.610;2023-03-30T03:16:08;12.20;1.00
3005;DHT22;1512;51.486;6.610;2023-03-30T03:20:20;12.10;1.00
3005;DHT22;1512;51.486;6.610;2023-03-30T03:24:29;12.10;1.00
3005;DHT22;1512;51.486;6.610;2023-03-30T03:28:39;12.10;1.00
3005;DHT22;1512;51.486;6.610;2023-03-30T03:32:48;12.10;1.00
3005;DHT22;1512;51.486;6.610;2023-03-30T03:36:58;12.20;1.00
3005;DHT22;1512;51.486;6.610;2023-03-30T03:41:06;12.20;1.00
3005;DHT22;1512;51.486;6.610;2023-03-30T03:45:16;12.30;1.00
3005;DHT22;1512;51.486;6.610;2023-03-30T03:49:25;12.30;1.00
3005;DHT22;1512;51.486;6.610;2023-03-30T03:53:33;12.40;1.00
3005;DHT22;1512;51.486;6.610;2023-03-30T03:57:42;12.50;1.00
3005;DHT22;1512;51.486;6.610;2023-03-30T04:01:51;12.50;1.00
3005;DHT22;1512;51.486;6.610;2023-03-30T04:06:00;12.50;1.00
3005;DHT22;1512;51.486;6.610;2023-03-30T04:10:09;12.60;1.00
3005;DHT22;1512;51.486;6.610;2023-03-30T04:14:18;12.60;1.00
3005;DHT22;1512;51.486;6.610;2023-03-30T04:18:27;12.60;1.00
3005;DHT22;1512;51.486;6.610;2023-03-30T04:22:41;12.60;1.00
3005;DHT22;1512;51.486;6.610;2023-03-30T04:26:49;12.70;1.00
3005;DHT22;1512;51.486;6.610;2023-03-30T04:30:59;12.70;1.00
3005;DHT22;1512;51.486;6.610;2023-03-30T04:35:09;12.80;1.00
3005;DHT22;1512;51.486;6.610;2023-03-30T04:39:18;13.00;1.00
3005;DHT22;1512;51.486;6.610;2023-03-30T04:43:27;13.00;1.00
3005;DHT22;1512;51.486;6.610;2023-03-30T04:47:36;12.90;1.00
3005;DHT22;1512;51.486;6.610;2023-03-30T04:51:45;12.90;1.00
3005;DHT22;1512;51.486;6.610;2023-03-30T04:55:53;12.90;1.00
3005;DHT22;1512;51.486;6.610;2023-03-30T05:00:04;13.00;1.00
3005;DHT22;1512;51.486;6.610;2023-03-30T05:04:17;12.90;1.00
3005;DHT22;1512;51.486;6.610;2023-03-30T05:08:26;12.90;1.00
3005;DHT22;1512;51.486;6.610;2023-03-30T05:12:34;12.80;1.00
3005;DHT22;1512;51.486;6.610;2023-03-30T05:16:43;12.70;1.00
3005;DHT22;1512;51.486;6.610;2023-03-30T05:20:57;12.80;1.00
3005;DHT22;1512;51.486;6.610;2023-03-30T05:25:06;12.80;1.00
3005;DHT22;1512;51.486;6.610;2023-03-30T05:29:15;12.70;1.00
3005;DHT22;1512;51.486;6.610;2023-03-30T05:33:24;12.90;1.00
3005;DHT22;1512;51.486;6.610;2023-03-30T05:37:34;12.90;1.00
3005;DHT22;1512;51.486;6.610;2023-03-30T05:41:42;13.00;1.00
3005;DHT22;1512;51.486;6.610;2023-03-30T05:45:52;12.90;1.00
3005;DHT22;1512;51.486;6.610;2023-03-30T05:54:22;12.90;1.00
3005;DHT22;1512;51.486;6.610;2023-03-30T05:58:32;12.80;1.00
3005;DHT22;1512;51.486;6.610;2023-03-30T06:02:41;12.90;1.00
3005;DHT22;1512;51.486;6.610;2023-03-30T06:06:51;12.90;1.00
3005;DHT22;1512;51.486;6.610;2023-03-30T06:11:00;13.00;1.00
3005;DHT22;1512;51.486;6.610;2023-03-30T06:15:09;13.00;1.00
3005;DHT22;1512;51.486;6.610;2023-03-30T06:19:18;13.10;1.00
3005;DHT22;1512;51.486;6.610;2023-03-30T06:23:28;13.10;1.00
3005;DHT22;1512;51.486;6.610;2023-03-30T06:27:36;13.10;1.00
3005;DHT22;1512;51.486;6.610;2023-03-30T06:31:45;13.20;1.00
3005;DHT22;1512;51.486;6.610;2023-03-30T06:35:54;13.20;1.00
3005;DHT22;1512;51.486;6.610;2023-03-30T06:40:04;13.30;1.00
3005;DHT22;1512;51.486;6.610;2023-03-30T06:44:17;13.30;1.00
3005;DHT22;1512;51.486;6.610;2023-03-30T06:48:27;13.40;1.00
3005;DHT22;1512;51.486;6.610;2023-03-30T06:52:36;13.40;1.00
3005;DHT22;1512;51.486;6.610;2023-03-30T06:56:46;13.40;1.00
3005;DHT22;1512;51.486;6.610;2023-03-30T07:00:56;13.50;1.00
3005;DHT22;1512;51.486;6.610;2023-03-30T07:05:06;13.60;1.00
3005;DHT22;1512;51.486;6.610;2023-03-30T07:09:15;13.70;1.00
3005;DHT22;1512;51.486;6.610;2023-03-30T07:13:24;13.70;1.00
3005;DHT22;1512;51.486;6.610;2023-03-30T07:17:33;13.70;1.00
3005;DHT22;1512;51.486;6.610;2023-03-30T07:21:42;13.90;1.00
3005;DHT22;1512;51.486;6.610;2023-03-30T07:25:51;14.00;1.00
3005;DHT22;1512;51.486;6.610;2023-03-30T07:30:00;13.80;1.00
3005;DHT22;1512;51.486;6.610;2023-03-30T07:34:10;13.80;1.00
3005;DHT22;1512;51.486;6.610;2023-03-30T07:38:19;13.70;1.00
3005;DHT22;1512;51.486;6.610;2023-03-30T07:42:27;13.90;1.00
3005;DHT22;1512;51.486;6.610;2023-03-30T07:46:36;14.00;1.00
3005;DHT22;1512;51.486;6.610;2023-03-30T07:50:45;13.90;1.00
3005;DHT22;1512;51.486;6.610;2023-03-30T07:54:54;13.80;1.00
3005;DHT22;1512;51.486;6.610;2023-03-30T07:59:03;13.70;1.00
3005;DHT22;1512;51.486;6.610;2023-03-30T08:03:12;13.60;1.00
3005;DHT22;1512;51.486;6.610;2023-03-30T08:07:21;13.50;1.00
3005;DHT22;1512;51.486;6.610;2023-03-30T08:11:30;13.50;1.00
3005;DHT22;1512;51.486;6.610;2023-03-30T08:15:41;13.50;1.00
3005;DHT22;1512;51.486;6.610;2023-03-30T08:19:49;13.40;1.00
3005;DHT22;1512;51.486;6.610;2023-03-30T08:23:58;13.50;1.00
3005;DHT22;1512;51.486;6.610;2023-03-30T08:28:07;13.30;1.00
3005;DHT22;1512;51.486;6.610;2023-03-30T08:32:16;13.30;1.00
3005;DHT22;1512;51.486;6.610;2023-03-30T08:36:25;13.30;1.00
3005;DHT22;1512;51.486;6.610;2023-03-30T08:40:39;13.20;1.00
3005;DHT22;1512;51.486;6.610;2023-03-30T08:44:53;13.30;1.00
3005;DHT22;1512;51.486;6.610;2023-03-30T08:49:05;13.60;1.00
3005;DHT22;1512;51.486;6.610;2023-03-30T08:53:14;13.90;1.00
3005;DHT22;1512;51.486;6.610;2023-03-30T09:02:22;14.30;1.00
3005;DHT22;1512;51.486;6.610;2023-03-30T09:06:43;14.50;1.00
3005;DHT22;1512;51.486;6.610;2023-03-30T09:10:52;14.60;1.00
3005;DHT22;1512;51.486;6.610;2023-03-30T09:19:26;14.80;1.00
3005;DHT22;1512;51.486;6.610;2023-03-30T09:23:31;14.90;1.00
3005;DHT22;1512;51.486;6.610;2023-03-30T09:32:16;15.00;1.00
3005;DHT22;1512;51.486;6.610;2023-03-30T09:41:01;14.90;1.00
3005;DHT22;1512;51.486;6.610;2023-03-30T09:45:21;15.10;1.00
3005;DHT22;1512;51.486;6.610;2023-03-30T09:53:59;15.20;1.00
3005;DHT22;1512;51.486;6.610;2023-03-30T09:58:20;15.10;1.00
3005;DHT22;1512;51.486;6.610;2023-03-30T10:02:29;15.00;1.00
3005;DHT22;1512;51.486;6.610;2023-03-30T10:06:48;14.80;1.00
3005;DHT22;1512;51.486;6.610;2023-03-30T10:10:58;14.70;1.00
3005;DHT22;1512;51.486;6.610;2023-03-30T10:15:13;14.50;1.00
3005;DHT22;1512;51.486;6.610;2023-03-30T10:19:21;14.50;1.00
3005;DHT22;1512;51.486;6.610;2023-03-30T10:23:38;14.60;1.00
3005;DHT22;1512;51.486;6.610;2023-03-30T10:27:50;14.50;1.00
3005;DHT22;1512;51.486;6.610;2023-03-30T10:32:20;14.40;1.00
3005;DHT22;1512;51.486;6.610;2023-03-30T10:36:34;14.40;1.00
3005;DHT22;1512;51.486;6.610;2023-03-30T10:40:44;14.60;1.00
3005;DHT22;1512;51.486;6.610;2023-03-30T10:44:57;14.50;1.00
3005;DHT22;1512;51.486;6.610;2023-03-30T10:49:20;14.70;1.00
3005;DHT22;1512;51.486;6.610;2023-03-30T10:53:48;14.70;1.00
3005;DHT22;1512;51.486;6.610;2023-03-30T10:58:02;15.00;1.00
3005;DHT22;1512;51.486;6.610;2023-03-30T11:06:29;15.50;1.00
3005;DHT22;1512;51.486;6.610;2023-03-30T11:10:40;15.30;1.00
3005;DHT22;1512;51.486;6.610;2023-03-30T11:15:11;15.20;1.00
3005;DHT22;1512;51.486;6.610;2023-03-30T11:19:17;15.20;1.00
3005;DHT22;1512;51.486;6.610;2023-03-30T11:23:37;15.40;1.00
3005;DHT22;1512;51.486;6.610;2023-03-30T11:27:50;15.40;1.00
3005;DHT22;1512;51.486;6.610;2023-03-30T11:36:44;15.60;1.00
3005;DHT22;1512;51.486;6.610;2023-03-30T11:41:00;15.40;1.00
3005;DHT22;1512;51.486;6.610;2023-03-30T11:45:24;15.20;1.00
3005;DHT22;1512;51.486;6.610;2023-03-30T11:58:33;15.90;1.00
3005;DHT22;1512;51.486;6.610;2023-03-30T12:07:00;16.50;1.00
3005;DHT22;1512;51.486;6.610;2023-03-30T12:15:49;16.40;1.00
3005;DHT22;1512;51.486;6.610;2023-03-30T12:24:22;16.10;1.00
3005;DHT22;1512;51.486;6.610;2023-03-30T12:28:47;15.80;1.00
3005;DHT22;1512;51.486;6.610;2023-03-30T12:33:09;15.50;1.00
3005;DHT22;1512;51.486;6.610;2023-03-30T12:37:34;15.10;1.00
3005;DHT22;1512;51.486;6.610;2023-03-30T12:41:49;14.60;1.00
3005;DHT22;1512;51.486;6.610;2023-03-30T12:46:10;14.30;1.00
3005;DHT22;1512;51.486;6.610;2023-03-30T12:50:30;13.90;1.00
3005;DHT22;1512;51.486;6.610;2023-03-30T12:59:07;13.60;1.00
3005;DHT22;1512;51.486;6.610;2023-03-30T13:07:46;13.80;1.00
3005;DHT22;1512;51.486;6.610;2023-03-30T13:16:13;14.50;1.00
3005;DHT22;1512;51.486;6.610;2023-03-30T13:20:28;14.50;1.00
3005;DHT22;1512;51.486;6.610;2023-03-30T13:25:06;14.50;1.00
3005;DHT22;1512;51.486;6.610;2023-03-30T13:29:13;14.70;1.00
3005;DHT22;1512;51.486;6.610;2023-03-30T13:33:24;14.90;1.00
3005;DHT22;1512;51.486;6.610;2023-03-30T13:46:53;15.60;1.00
3005;DHT22;1512;51.486;6.610;2023-03-30T13:51:03;15.90;1.00
3005;DHT22;1512;51.486;6.610;2023-03-30T13:55:32;16.00;1.00
3005;DHT22;1512;51.486;6.610;2023-03-30T13:59:44;16.10;1.00
3005;DHT22;1512;51.486;6.610;2023-03-30T14:03:55;16.20;1.00
3005;DHT22;1512;51.486;6.610;2023-03-30T14:08:07;16.40;1.00
3005;DHT22;1512;51.486;6.610;2023-03-30T14:12:18;16.30;1.00
3005;DHT22;1512;51.486;6.610;2023-03-30T14:16:37;16.10;1.00
3005;DHT22;1512;51.486;6.610;2023-03-30T14:20:44;15.80;1.00
3005;DHT22;1512;51.486;6.610;2023-03-30T14:25:04;15.60;1.00
3005;DHT22;1512;51.486;6.610;2023-03-30T14:29:15;15.20;1.00
3005;DHT22;1512;51.486;6.610;2023-03-30T14:33:23;14.80;1.00
3005;DHT22;1512;51.486;6.610;2023-03-30T14:37:33;14.90;1.00
3005;DHT22;1512;51.486;6.610;2023-03-30T14:41:43;15.00;1.00
3005;DHT22;1512;51.486;6.610;2023-03-30T14:45:54;15.20;1.00
3005;DHT22;1512;51.486;6.610;2023-03-30T14:50:05;15.30;1.00
3005;DHT22;1512;51.486;6.610;2023-03-30T14:54:35;15.50;1.00
3005;DHT22;1512;51.486;6.610;2023-03-30T14:58:44;15.40;1.00
3005;DHT22;1512;51.486;6.610;2023-03-30T15:03:01;15.40;1.00
3005;DHT22;1512;51.486;6.610;2023-03-30T15:07:08;15.30;1.00
3005;DHT22;1512;51.486;6.610;2023-03-30T15:11:23;15.20;1.00
3005;DHT22;1512;51.486;6.610;2023-03-30T15:15:34;15.10;1.00
3005;DHT22;1512;51.486;6.610;2023-03-30T15:19:43;14.10;1.00
3005;DHT22;1512;51.486;6.610;2023-03-30T15:23:53;13.50;1.00
3005;DHT22;1512;51.486;6.610;2023-03-30T15:32:37;13.70;99.90
3005;DHT22;1512;51.486;6.610;2023-03-30T15:36:51;13.70;99.90
3005;DHT22;1512;51.486;6.610;2023-03-30T15:40:57;13.70;99.90
3005;DHT22;1512;51.486;6.610;2023-03-30T15:45:11;13.80;99.90
3005;DHT22;1512;51.486;6.610;2023-03-30T15:49:23;13.90;17.60
3005;DHT22;1512;51.486;6.610;2023-03-30T15:53:48;13.90;1.00
3005;DHT22;1512;51.486;6.610;2023-03-30T15:57:53;13.80;1.00
3005;DHT22;1512;51.486;6.610;2023-03-30T16:06:40;13.80;1.00
3005;DHT22;1512;51.486;6.610;2023-03-30T16:10:51;13.80;1.00
3005;DHT22;1512;51.486;6.610;2023-03-30T16:15:00;13.80;1.00
3005;DHT22;1512;51.486;6.610;2023-03-30T16:19:13;13.80;1.00
3005;DHT22;1512;51.486;6.610;2023-03-30T16:23:23;13.80;1.00
3005;DHT22;1512;51.486;6.610;2023-03-30T16:27:31;13.80;1.00
3005;DHT22;1512;51.486;6.610;2023-03-30T16:31:40;13.80;1.00
3005;DHT22;1512;51.486;6.610;2023-03-30T16:35:48;13.70;1.00
3005;DHT22;1512;51.486;6.610;2023-03-30T16:39:58;13.70;1.00
3005;DHT22;1512;51.486;6.610;2023-03-30T16:44:06;13.60;1.00
3005;DHT22;1512;51.486;6.610;2023-03-30T16:48:15;13.60;1.00
3005;DHT22;1512;51.486;6.610;2023-03-30T16:52:24;13.80;67.20
3005;DHT22;1512;51.486;6.610;2023-03-30T16:56:33;13.50;86.50
3005;DHT22;1512;51.486;6.610;2023-03-30T17:00:46;13.30;87.90
3005;DHT22;1512;51.486;6.610;2023-03-30T17:04:56;13.10;51.00
3005;DHT22;1512;51.486;6.610;2023-03-30T17:09:04;12.80;99.90
3005;DHT22;1512;51.486;6.610;2023-03-30T17:13:15;12.80;99.90
3005;DHT22;1512;51.486;6.610;2023-03-30T17:17:23;12.70;99.90
3005;DHT22;1512;51.486;6.610;2023-03-30T17:21:32;12.70;1.00
3005;DHT22;1512;51.486;6.610;2023-03-30T17:26:01;12.70;1.00
3005;DHT22;1512;51.486;6.610;2023-03-30T17:34:28;12.80;1.00
3005;DHT22;1512;51.486;6.610;2023-03-30T17:38:37;12.70;1.00
3005;DHT22;1512;51.486;6.610;2023-03-30T17:42:47;12.60;1.00
3005;DHT22;1512;51.486;6.610;2023-03-30T17:46:57;12.60;1.00
3005;DHT22;1512;51.486;6.610;2023-03-30T17:51:05;12.60;1.00
3005;DHT22;1512;51.486;6.610;2023-03-30T17:55:15;12.60;1.00
3005;DHT22;1512;51.486;6.610;2023-03-30T17:59:24;12.50;1.00
3005;DHT22;1512;51.486;6.610;2023-03-30T18:03:34;12.50;1.00
3005;DHT22;1512;51.486;6.610;2023-03-30T18:07:45;12.50;1.00
3005;DHT22;1512;51.486;6.610;2023-03-30T18:11:54;12.40;1.00
3005;DHT22;1512;51.486;6.610;2023-03-30T18:16:04;12.40;1.00
3005;DHT22;1512;51.486;6.610;2023-03-30T18:20:28;12.40;1.00
3005;DHT22;1512;51.486;6.610;2023-03-30T18:24:37;12.30;1.00
3005;DHT22;1512;51.486;6.610;2023-03-30T18:28:45;12.40;1.00
3005;DHT22;1512;51.486;6.610;2023-03-30T18:32:55;12.20;1.00
3005;DHT22;1512;51.486;6.610;2023-03-30T18:37:03;12.20;1.00
3005;DHT22;1512;51.486;6.610;2023-03-30T18:41:12;12.20;1.00
3005;DHT22;1512;51.486;6.610;2023-03-30T18:45:30;12.20;1.00
3005;DHT22;1512;51.486;6.610;2023-03-30T18:49:40;12.20;1.00
3005;DHT22;1512;51.486;6.610;2023-03-30T18:53:49;12.20;1.00
3005;DHT22;1512;51.486;6.610;2023-03-30T18:57:58;12.20;1.00
3005;DHT22;1512;51.486;6.610;2023-03-30T19:02:08;12.20;1.00
3005;DHT22;1512;51.486;6.610;2023-03-30T19:06:20;12.20;1.00
3005;DHT22;1512;51.486;6.610;2023-03-30T19:10:35;12.20;1.00
3005;DHT22;1512;51.486;6.610;2023-03-30T19:14:41;12.20;1.00
3005;DHT22;1512;51.486;6.610;2023-03-30T19:18:50;12.10;99.90
3005;DHT22;1512;51.486;6.610;2023-03-30T19:23:00;12.10;99.90
3005;DHT22;1512;51.486;6.610;2023-03-30T19:27:09;12.10;99.90
3005;DHT22;1512;51.486;6.610;2023-03-30T19:31:18;12.00;1.00
3005;DHT22;1512;51.486;6.610;2023-03-30T19:35:27;12.00;1.00
3005;DHT22;1512;51.486;6.610;2023-03-30T19:39:37;12.00;1.00
3005;DHT22;1512;51.486;6.610;2023-03-30T19:43:45;12.00;1.00
3005;DHT22;1512;51.486;6.610;2023-03-30T19:47:56;12.00;1.00
3005;DHT22;1512;51.486;6.610;2023-03-30T19:52:05;12.00;1.00
3005;DHT22;1512;51.486;6.610;2023-03-30T19:56:14;12.10;99.90
3005;DHT22;1512;51.486;6.610;2023-03-30T20:00:23;12.10;99.90
3005;DHT22;1512;51.486;6.610;2023-03-30T20:04:32;12.00;99.90
3005;DHT22;1512;51.486;6.610;2023-03-30T20:08:40;12.00;1.00
3005;DHT22;1512;51.486;6.610;2023-03-30T20:12:50;12.00;11.80
3005;DHT22;1512;51.486;6.610;2023-03-30T20:17:00;12.00;1.00
3005;DHT22;1512;51.486;6.610;2023-03-30T20:21:09;12.00;1.00
3005;DHT22;1512;51.486;6.610;2023-03-30T20:25:19;12.00;1.00
3005;DHT22;1512;51.486;6.610;2023-03-30T20:29:28;11.90;1.00
3005;DHT22;1512;51.486;6.610;2023-03-30T20:33:37;11.90;1.00
3005;DHT22;1512;51.486;6.610;2023-03-30T20:37:46;11.80;1.00
3005;DHT22;1512;51.486;6.610;2023-03-30T20:42:14;11.80;1.00
3005;DHT22;1512;51.486;6.610;2023-03-30T20:46:24;11.70;1.00
3005;DHT22;1512;51.486;6.610;2023-03-30T20:50:35;11.70;1.00
3005;DHT22;1512;51.486;6.610;2023-03-30T20:54:43;11.70;1.00
3005;DHT22;1512;51.486;6.610;2023-03-30T20:58:52;11.60;1.00
3005;DHT22;1512;51.486;6.610;2023-03-30T21:03:01;11.70;1.00
3005;DHT22;1512;51.486;6.610;2023-03-30T21:07:10;11.60;99.90
3005;DHT22;1512;51.486;6.610;2023-03-30T21:11:19;11.60;99.90
3005;DHT22;1512;51.486;6.610;2023-03-30T21:15:29;11.60;1.00
3005;DHT22;1512;51.486;6.610;2023-03-30T21:19:38;11.70;99.90
3005;DHT22;1512;51.486;6.610;2023-03-30T21:23:47;11.70;99.90
3005;DHT22;1512;51.486;6.610;2023-03-30T21:27:55;11.60;99.90
3005;DHT22;1512;51.486;6.610;2023-03-30T21:32:04;11.50;99.90
3005;DHT22;1512;51.486;6.610;2023-03-30T21:36:13;11.50;99.90
3005;DHT22;1512;51.486;6.610;2023-03-30T21:40:22;11.40;99.90
3005;DHT22;1512;51.486;6.610;2023-03-30T21:44:34;11.30;99.90
3005;DHT22;1512;51.486;6.610;2023-03-30T21:48:44;11.20;99.90
3005;DHT22;1512;51.486;6.610;2023-03-30T21:52:58;11.30;1.00
3005;DHT22;1512;51.486;6.610;2023-03-30T21:57:07;11.20;1.00
3005;DHT22;1512;51.486;6.610;2023-03-30T22:01:17;11.10;1.00
3005;DHT22;1512;51.486;6.610;2023-03-30T22:05:26;11.00;1.00
3005;DHT22;1512;51.486;6.610;2023-03-30T22:09:35;11.10;1.00
3005;DHT22;1512;51.486;6.610;2023-03-30T22:13:44;11.10;1.00
3005;DHT22;1512;51.486;6.610;2023-03-30T22:17:54;11.20;1.00
3005;DHT22;1512;51.486;6.610;2023-03-30T22:22:03;11.10;1.00
3005;DHT22;1512;51.486;6.610;2023-03-30T22:26:13;11.10;1.00
3005;DHT22;1512;51.486;6.610;2023-03-30T22:30:22;11.20;1.00
3005;DHT22;1512;51.486;6.610;2023-03-30T22:34:30;11.20;1.00
3005;DHT22;1512;51.486;6.610;2023-03-30T22:38:59;11.20;1.00
3005;DHT22;1512;51.486;6.610;2023-03-30T22:43:09;11.20;1.00
3005;DHT22;1512;51.486;6.610;2023-03-30T22:47:18;11.20;1.00
3005;DHT22;1512;51.486;6.610;2023-03-30T22:51:27;11.30;1.00
3005;DHT22;1512;51.486;6.610;2023-03-30T22:55:36;11.30;1.00
3005;DHT22;1512;51.486;6.610;2023-03-30T22:59:45;11.30;1.00
3005;DHT22;1512;51.486;6.610;2023-03-30T23:03:54;11.30;1.00
3005;DHT22;1512;51.486;6.610;2023-03-30T23:08:04;11.20;1.00
3005;DHT22;1512;51.486;6.610;2023-03-30T23:12:13;11.20;1.00
3005;DHT22;1512;51.486;6.610;2023-03-30T23:16:22;11.10;1.00
3005;DHT22;1512;51.486;6.610;2023-03-30T23:20:31;11.00;1.00
3005;DHT22;1512;51.486;6.610;2023-03-30T23:24:39;11.00;1.00
3005;DHT22;1512;51.486;6.610;2023-03-30T23:28:48;10.90;1.00
3005;DHT22;1512;51.486;6.610;2023-03-30T23:32:57;10.80;1.00
3005;DHT22;1512;51.486;6.610;2023-03-30T23:37:06;10.70;1.00
3005;DHT22;1512;51.486;6.610;2023-03-30T23:41:34;10.70;1.00
3005;DHT22;1512;51.486;6.610;2023-03-30T23:45:43;10.70;1.00
3005;DHT22;1512;51.486;6.610;2023-03-30T23:49:51;10.60;1.00
3005;DHT22;1512;51.486;6.610;2023-03-30T23:54:00;10.70;23.40
3005;DHT22;1512;51.486;6.610;2023-03-30T23:58:11;10.70;99.90
